Time;durP1;ratioP1;P1;durP2;ratioP2;P2;SDS_P1;SDS_P2;PMS_P1;PMS_P2;Temp;Humidity;BMP_temperature;BMP_pressure;BME280_temperature;BME280_humidity;BME280_pressure;Samples;Min_cycle;Max_cycle;Signal;HPM_P1;HPM_P2
2023/10/20 00:01:21;;;;;;;;;;;;;;;8.59;88.10;99124.41;4211800;28;20027;-69
2023/10/20 00:03:23;;;;;;;;;;;;;;;8.56;88.07;99119.44;4213299;28;20013;-69
2023/10/20 00:05:25;;;;;;;;;;;;;;;8.56;88.47;99114.06;4213267;28;20362;-69
2023/10/20 00:07:29;;;;;;;;;;;;;;;8.58;88.08;99117.38;4214654;28;20450;-68
2023/10/20 00:09:31;;;;;;;;;;;;;;;8.57;88.08;99115.69;4212661;28;20450;-69
2023/10/20 00:11:33;;;;;;;;;;;;;;;8.56;88.09;99118.63;4212278;28;20019;-69
2023/10/20 00:13:34;;;;;;;;;;;;;;;8.56;87.73;99114.06;4213165;28;20433;-69
2023/10/20 00:15:36;;;;;;;;;;;;;;;8.54;88.12;99116.13;4211456;28;20023;-69
2023/10/20 00:17:38;;;;;;;;;;;;;;;8.54;87.77;99110.75;4213598;28;20023;-69
2023/10/20 00:19:40;;;;;;;;;;;;;;;8.53;87.99;99119.84;4213213;28;20020;-69
2023/10/20 00:21:45;;;;;;;;;;;;;;;8.54;88.32;99117.97;4213092;28;20022;-66
2023/10/20 00:23:48;;;;;;;;;;;;;;;8.52;88.13;99120.88;4213369;28;20474;-69
2023/10/20 00:25:50;;;;;;;;;;;;;;;8.53;88.21;99119.03;4212893;28;20070;-69
2023/10/20 00:27:52;;;;;;;;;;;;;;;8.53;88.26;99113.66;4213402;28;20445;-69
2023/10/20 00:29:54;;;;;;;;;;;;;;;8.52;88.34;99112.78;4213207;28;19924;-68
2023/10/20 00:31:56;;;;;;;;;;;;;;;8.54;87.83;99117.97;4227763;28;20073;-69
2023/10/20 00:33:58;;;;;;;;;;;;;;;8.52;87.88;99112.78;4210703;28;20393;-68
2023/10/20 00:36:00;;;;;;;;;;;;;;;8.53;87.65;99108.25;4212336;28;20027;-68
2023/10/20 00:38:02;;;;;;;;;;;;;;;8.52;87.80;99107.41;4212888;28;20481;-67
2023/10/20 00:40:07;;;;;;;;;;;;;;;8.52;87.89;99107.41;4212838;28;20022;-69
2023/10/20 00:42:09;;;;;;;;;;;;;;;8.52;87.70;99095.84;4228271;27;20392;-66
2023/10/20 00:44:12;;;;;;;;;;;;;;;8.52;87.60;99103.91;4211102;28;20046;-69
2023/10/20 00:46:14;;;;;;;;;;;;;;;8.51;87.93;99102.22;4211185;28;20441;-68
2023/10/20 00:48:16;;;;;;;;;;;;;;;8.50;88.34;99096.03;4212904;28;20454;-68
2023/10/20 00:50:18;;;;;;;;;;;;;;;8.49;88.29;99102.44;4212732;28;20051;-68
2023/10/20 00:52:20;;;;;;;;;;;;;;;8.48;88.03;99093.56;4212652;28;20011;-67
2023/10/20 00:54:22;;;;;;;;;;;;;;;8.45;87.97;99085.88;4212420;28;20014;-70
2023/10/20 00:56:25;;;;;;;;;;;;;;;8.49;88.31;99091.69;4212702;28;20024;-69
2023/10/20 00:58:27;;;;;;;;;;;;;;;8.47;87.95;99094.56;4212635;28;20031;-69
2023/10/20 01:00:29;;;;;;;;;;;;;;;8.47;88.19;99081.13;4210896;28;20038;-69
2023/10/20 01:02:32;;;;;;;;;;;;;;;8.47;87.94;99080.28;4211621;28;20422;-69
2023/10/20 01:04:34;;;;;;;;;;;;;;;8.48;88.00;99065.81;4212557;28;20011;-69
2023/10/20 01:06:36;;;;;;;;;;;;;;;8.46;87.72;99074.09;4212811;28;20039;-68
2023/10/20 01:08:39;;;;;;;;;;;;;;;8.48;87.68;99080.09;4212528;28;20023;-69
2023/10/20 01:10:41;;;;;;;;;;;;;;;8.48;87.64;99081.97;4211023;28;20015;-69
2023/10/20 01:12:43;;;;;;;;;;;;;;;8.47;87.85;99073.03;4212291;28;20018;-69
2023/10/20 01:14:45;;;;;;;;;;;;;;;8.47;87.74;99088.38;4213012;28;20454;-69
2023/10/20 01:16:47;;;;;;;;;;;;;;;8.47;87.90;99077.59;4212500;28;20010;-69
2023/10/20 01:18:49;;;;;;;;;;;;;;;8.45;87.93;99082.38;4212131;28;20450;-68
2023/10/20 01:20:52;;;;;;;;;;;;;;;8.44;87.77;99097.66;4210674;28;20035;-69
2023/10/20 01:22:53;;;;;;;;;;;;;;;8.45;88.22;99090.44;4212007;28;20023;-69
2023/10/20 01:24:57;;;;;;;;;;;;;;;8.44;88.03;99081.53;4211032;28;20035;-69
2023/10/20 01:26:59;;;;;;;;;;;;;;;8.44;87.75;99070.75;4212055;28;20010;-67
2023/10/20 01:29:05;;;;;;;;;;;;;;;8.43;88.13;99065.56;4213131;28;20928;-69
2023/10/20 01:31:07;;;;;;;;;;;;;;;8.44;88.09;99064.56;4227139;28;20938;-69
2023/10/20 01:33:09;;;;;;;;;;;;;;;8.43;87.87;99058.38;4227623;28;20453;-68
2023/10/20 01:35:13;;;;;;;;;;;;;;;8.43;88.38;99052.09;4227301;28;20018;-68
2023/10/20 01:37:15;;;;;;;;;;;;;;;8.43;88.37;99057.47;4212492;28;20007;-69
2023/10/20 01:39:18;;;;;;;;;;;;;;;8.42;88.17;99055.84;4211588;28;19927;-68
2023/10/20 01:41:21;;;;;;;;;;;;;;;8.42;88.15;99048.59;4210865;28;20378;-68
2023/10/20 01:43:23;;;;;;;;;;;;;;;8.43;88.40;99049.41;4212809;28;20027;-69
2023/10/20 01:45:26;;;;;;;;;;;;;;;8.43;88.79;99054.78;4213018;28;20031;-69
2023/10/20 01:47:27;;;;;;;;;;;;;;;8.42;88.65;99045.09;4212027;28;20020;-69
2023/10/20 01:49:29;;;;;;;;;;;;;;;8.42;88.59;99053.97;4211852;28;19932;-68
2023/10/20 01:51:31;;;;;;;;;;;;;;;8.41;88.53;99052.31;4210363;28;20676;-69
2023/10/20 01:53:34;;;;;;;;;;;;;;;8.41;88.66;99054.19;4211708;28;20019;-68
2023/10/20 01:55:39;;;;;;;;;;;;;;;8.41;88.75;99048.78;4210793;28;20003;-70
2023/10/20 01:57:42;;;;;;;;;;;;;;;8.40;88.64;99039.06;4227416;28;20022;-67
2023/10/20 01:59:44;;;;;;;;;;;;;;;8.39;89.12;99040.94;4227876;28;20454;-69
2023/10/20 02:01:46;;;;;;;;;;;;;;;8.41;88.96;99051.50;4226393;28;20392;-69
2023/10/20 02:03:49;;;;;;;;;;;;;;;8.40;88.87;99042.59;4211402;28;20019;-69
2023/10/20 02:05:51;;;;;;;;;;;;;;;8.39;89.08;99038.25;4211743;28;20019;-69
2023/10/20 02:07:53;;;;;;;;;;;;;;;8.41;88.97;99035.34;4210625;28;20343;-68
2023/10/20 02:09:56;;;;;;;;;;;;;;;8.40;88.96;99036.38;4210275;28;20384;-70
2023/10/20 02:11:58;;;;;;;;;;;;;;;8.40;88.67;99031.84;4210507;28;20085;-69
2023/10/20 02:14:03;;;;;;;;;;;;;;;8.41;88.76;99032.66;4211774;28;20003;-69
2023/10/20 02:16:06;;;;;;;;;;;;;;;8.40;88.84;99033.69;4227206;28;20022;-68
2023/10/20 02:18:08;;;;;;;;;;;;;;;8.40;89.06;99034.53;4198377;28;20027;-69
2023/10/20 02:20:11;;;;;;;;;;;;;;;8.40;89.11;99036.38;4211148;28;20059;-69
2023/10/20 02:22:12;;;;;;;;;;;;;;;8.39;89.39;99030.16;4226434;28;20018;-69
2023/10/20 02:24:14;;;;;;;;;;;;;;;8.40;89.24;99033.69;4210557;28;20363;-70
2023/10/20 02:26:17;;;;;;;;;;;;;;;8.40;89.62;99039.06;4211646;28;20434;-68
2023/10/20 02:28:19;;;;;;;;;;;;;;;8.40;89.48;99039.06;4199754;28;20016;-68
2023/10/20 02:30:23;;;;;;;;;;;;;;;8.41;89.66;99030.78;4226317;28;20032;-69
2023/10/20 02:32:25;;;;;;;;;;;;;;;8.40;89.60;99029.16;4226202;28;19924;-69
2023/10/20 02:34:27;;;;;;;;;;;;;;;8.40;89.65;99028.28;4226633;28;20011;-68
2023/10/20 02:36:30;;;;;;;;;;;;;;;8.40;89.76;99018.38;4203972;28;20032;-69
2023/10/20 02:38:33;;;;;;;;;;;;;;;8.40;90.03;99021.06;4209640;28;20027;-67
2023/10/20 02:40:36;;;;;;;;;;;;;;;8.40;90.01;99013.00;4209988;28;20015;-68
2023/10/20 02:42:38;;;;;;;;;;;;;;;8.42;89.78;99015.50;4211271;28;20042;-69
2023/10/20 02:44:40;;;;;;;;;;;;;;;8.41;89.98;99003.88;4200906;28;20023;-68
2023/10/20 02:46:44;;;;;;;;;;;;;;;8.41;89.88;99003.88;4226769;28;20022;-67
2023/10/20 02:48:45;;;;;;;;;;;;;;;8.41;89.92;98995.81;4211191;28;20047;-69
2023/10/20 02:50:47;;;;;;;;;;;;;;;8.40;90.45;98994.19;4210264;28;20023;-69
2023/10/20 02:52:49;;;;;;;;;;;;;;;8.41;90.22;98985.03;4211233;28;19928;-69
2023/10/20 02:54:53;;;;;;;;;;;;;;;8.42;89.92;98985.91;4210792;28;20018;-69
2023/10/20 02:56:56;;;;;;;;;;;;;;;8.41;90.13;98982.34;4211483;28;20026;-68
2023/10/20 02:58:58;;;;;;;;;;;;;;;8.42;90.39;98983.22;4211348;28;20177;-69
2023/10/20 03:01:02;;;;;;;;;;;;;;;8.42;90.42;98989.41;4209366;28;20480;-69
2023/10/20 03:03:06;;;;;;;;;;;;;;;8.42;90.17;98986.72;4209037;28;20513;-68
2023/10/20 03:05:09;;;;;;;;;;;;;;;8.41;90.32;98984.22;4210691;28;20019;-69
2023/10/20 03:07:11;;;;;;;;;;;;;;;8.41;90.56;98986.91;4211976;28;20011;-68
2023/10/20 03:09:13;;;;;;;;;;;;;;;8.41;90.56;98986.91;4201492;28;20020;-69
2023/10/20 03:11:15;;;;;;;;;;;;;;;8.42;90.30;98985.91;4210651;28;20023;-68
2023/10/20 03:13:19;;;;;;;;;;;;;;;8.42;90.32;98983.22;4176744;28;20019;-68
2023/10/20 03:15:20;;;;;;;;;;;;;;;8.41;90.06;98990.44;4177955;28;20011;-69
2023/10/20 03:17:22;;;;;;;;;;;;;;;8.41;90.34;98982.34;4177493;28;20455;-69
2023/10/20 03:19:25;;;;;;;;;;;;;;;8.41;89.99;98976.16;4176561;28;20015;-68
2023/10/20 03:21:28;;;;;;;;;;;;;;;8.40;90.07;98983.41;4177036;28;20032;-69
2023/10/20 03:23:30;;;;;;;;;;;;;;;8.39;89.92;98975.56;4192608;28;20493;-68
2023/10/20 03:25:33;;;;;;;;;;;;;;;8.39;89.74;98978.25;4176714;28;20676;-69
2023/10/20 03:27:34;;;;;;;;;;;;;;;8.38;89.60;98972.00;4191170;28;20015;-69
2023/10/20 03:29:36;;;;;;;;;;;;;;;8.38;89.79;98969.31;4177120;28;20032;-69
2023/10/20 03:31:38;;;;;;;;;;;;;;;8.38;89.76;98971.19;4176168;28;20020;-69
2023/10/20 03:33:40;;;;;;;;;;;;;;;8.38;89.69;98965.81;4175976;28;20019;-69
2023/10/20 03:35:43;;;;;;;;;;;;;;;8.38;89.57;98958.56;4175653;28;20027;-69
2023/10/20 03:37:45;;;;;;;;;;;;;;;8.38;89.36;98950.50;4177314;28;20023;-70
2023/10/20 03:39:47;;;;;;;;;;;;;;;8.37;89.42;98962.31;4191174;28;20032;-69
2023/10/20 03:41:49;;;;;;;;;;;;;;;8.36;89.73;98952.56;4177468;28;20014;-69
2023/10/20 03:43:51;;;;;;;;;;;;;;;8.35;89.73;98956.28;4175974;28;20031;-69
2023/10/20 03:45:56;;;;;;;;;;;;;;;8.34;89.73;98968.09;4177169;28;20027;-69
2023/10/20 03:47:58;;;;;;;;;;;;;;;8.35;89.42;98969.72;4175898;28;20446;-69
2023/10/20 03:50:00;;;;;;;;;;;;;;;8.36;89.39;98968.72;4176504;28;20025;-68
2023/10/20 03:52:06;;;;;;;;;;;;;;;8.37;88.97;98972.22;4176197;28;20099;-69
2023/10/20 03:54:10;;;;;;;;;;;;;;;8.35;89.00;98960.84;4176395;28;19936;-69
2023/10/20 03:56:12;;;;;;;;;;;;;;;8.34;88.98;98951.97;4176692;28;20023;-68
2023/10/20 03:58:14;;;;;;;;;;;;;;;8.35;88.87;98948.22;4175669;28;20080;-69
2023/10/20 04:00:17;;;;;;;;;;;;;;;8.34;89.28;98948.41;4175587;28;19924;-66
2023/10/20 04:02:19;;;;;;;;;;;;;;;8.31;89.05;98944.28;4176078;28;20361;-69
2023/10/20 04:04:22;;;;;;;;;;;;;;;8.31;89.15;98933.53;4176253;28;20015;-69
2023/10/20 04:06:24;;;;;;;;;;;;;;;8.30;89.12;98931.88;4176707;28;20947;-69
2023/10/20 04:08:27;;;;;;;;;;;;;;;8.29;89.27;98920.28;4193254;28;19956;-69
2023/10/20 04:10:29;;;;;;;;;;;;;;;8.30;88.83;98926.50;4175545;28;20079;-68
2023/10/20 04:12:31;;;;;;;;;;;;;;;8.30;88.85;98927.31;4196389;28;20130;-68
2023/10/20 04:14:34;;;;;;;;;;;;;;;8.30;88.39;98921.94;4210303;28;19971;-69
2023/10/20 04:16:39;;;;;;;;;;;;;;;8.29;88.42;98920.28;4209262;28;20438;-69
2023/10/20 04:18:41;;;;;;;;;;;;;;;8.29;88.61;98909.53;4209490;28;20382;-68
2023/10/20 04:20:43;;;;;;;;;;;;;;;8.28;88.73;98901.69;4209541;28;20031;-68
2023/10/20 04:22:47;;;;;;;;;;;;;;;8.28;88.76;98894.44;4210803;28;20027;-69
2023/10/20 04:24:53;;;;;;;;;;;;;;;8.26;88.82;98882.22;4208649;28;20031;-68
2023/10/20 04:26:55;;;;;;;;;;;;;;;8.26;88.82;98882.22;4209392;28;20023;-69
2023/10/20 04:29:08;;;;;;;;;;;;;;;8.25;88.94;98892.16;4208399;28;20047;-67
2023/10/20 04:54:58;;;;;;;;;;;;;;;8.19;88.10;98900.22;4216766;27;19922;-68
2023/10/20 04:59:22;;;;;;;;;;;;;;;8.17;88.11;98913.88;4208376;28;20044;-68
2023/10/20 05:01:27;;;;;;;;;;;;;;;8.17;88.38;98921.94;4205905;28;20012;-70
2023/10/20 05:03:44;;;;;;;;;;;;;;;8.17;88.05;98908.50;4206200;28;20042;-69
2023/10/20 05:05:53;;;;;;;;;;;;;;;8.16;87.95;98897.94;4208260;28;20079;-68
2023/10/20 05:07:57;;;;;;;;;;;;;;;8.16;88.23;98898.75;4206802;28;20438;-70
2023/10/20 05:10:00;;;;;;;;;;;;;;;8.17;87.90;98903.13;4203816;28;20028;-70
2023/10/20 05:12:02;;;;;;;;;;;;;;;8.17;88.09;98905.00;4205837;28;20382;-69
2023/10/20 05:14:04;;;;;;;;;;;;;;;8.16;87.91;98898.75;4205164;28;20364;-69
2023/10/20 05:16:06;;;;;;;;;;;;;;;8.16;88.16;98897.94;4207482;28;20039;-70
2023/10/20 05:18:11;;;;;;;;;;;;;;;8.15;87.77;98910.56;4206468;28;20011;-68
2023/10/20 05:20:14;;;;;;;;;;;;;;;8.14;87.91;98918.84;4205658;28;20026;-68
2023/10/20 05:22:16;;;;;;;;;;;;;;;8.14;87.70;98911.59;4204105;28;20466;-68
2023/10/20 05:24:18;;;;;;;;;;;;;;;8.14;87.36;98916.97;4205491;28;20764;-68
2023/10/20 05:26:20;;;;;;;;;;;;;;;8.15;87.59;98909.72;4205004;28;20019;-68
2023/10/20 05:28:24;;;;;;;;;;;;;;;8.12;87.36;98917.19;4204617;28;20027;-68
2023/10/20 05:30:25;;;;;;;;;;;;;;;8.14;87.81;98902.72;4204656;28;20023;-68
2023/10/20 05:32:29;;;;;;;;;;;;;;;8.12;87.59;98900.22;4204138;28;20023;-67
2023/10/20 05:34:31;;;;;;;;;;;;;;;8.11;87.47;98907.44;4206815;28;20015;-68
2023/10/20 05:36:35;;;;;;;;;;;;;;;8.14;87.36;98911.59;4206674;28;19924;-69
2023/10/20 05:38:35;;;;;;;;;;;;;;;8.12;87.34;98905.59;4205414;28;20035;-68
2023/10/20 05:40:37;;;;;;;;;;;;;;;8.12;87.24;98909.13;4206163;28;20440;-67
2023/10/20 05:42:41;;;;;;;;;;;;;;;8.12;87.29;98894.84;4206181;28;20007;-67
2023/10/20 05:44:48;;;;;;;;;;;;;;;8.12;87.09;98909.13;4206219;28;20818;-68
2023/10/20 05:46:52;;;;;;;;;;;;;;;8.10;86.96;98900.44;4206026;28;20662;-68
2023/10/20 05:48:54;;;;;;;;;;;;;;;8.10;86.90;98895.06;4204709;28;20038;-68
2023/10/20 05:50:56;;;;;;;;;;;;;;;8.09;87.06;98893.41;4204500;28;20415;-68
2023/10/20 05:52:58;;;;;;;;;;;;;;;8.08;86.85;98886.34;4199681;28;19928;-68
2023/10/20 05:55:02;;;;;;;;;;;;;;;8.08;86.59;98897.09;4205717;28;20012;-68
2023/10/20 05:57:04;;;;;;;;;;;;;;;8.07;86.96;98886.56;4203057;28;20027;-67
2023/10/20 05:59:07;;;;;;;;;;;;;;;8.06;86.83;98872.28;4206357;28;20011;-68
2023/10/20 06:01:10;;;;;;;;;;;;;;;8.07;86.90;98867.72;4202596;28;20402;-67
2023/10/20 06:03:12;;;;;;;;;;;;;;;8.05;86.82;98872.50;4203802;28;20011;-68
2023/10/20 06:05:14;;;;;;;;;;;;;;;8.04;87.30;98879.75;4199197;28;20552;-68
2023/10/20 06:07:16;;;;;;;;;;;;;;;8.04;87.12;98873.53;4194911;28;20470;-67
2023/10/20 06:09:19;;;;;;;;;;;;;;;8.04;87.37;98876.22;4195087;28;20044;-68
2023/10/20 06:11:21;;;;;;;;;;;;;;;8.04;87.18;98884.28;4195529;28;20016;-68
2023/10/20 06:13:23;;;;;;;;;;;;;;;8.03;87.18;98879.94;4194951;28;20369;-68
2023/10/20 06:15:26;;;;;;;;;;;;;;;8.02;87.05;98870.22;4193498;28;20030;-68
2023/10/20 06:17:28;;;;;;;;;;;;;;;8.02;86.74;98870.22;4193639;28;20567;-66
2023/10/20 06:19:31;;;;;;;;;;;;;;;8.01;87.04;98860.50;4194479;28;20015;-67
2023/10/20 06:21:33;;;;;;;;;;;;;;;7.99;87.26;98855.31;4193607;28;20027;-67
2023/10/20 06:23:34;;;;;;;;;;;;;;;8.00;87.48;98848.09;4194600;28;20031;-68
2023/10/20 06:25:36;;;;;;;;;;;;;;;7.98;87.15;98856.38;4195065;28;19960;-68
2023/10/20 06:27:39;;;;;;;;;;;;;;;7.98;87.41;98848.31;4195043;28;20451;-68
2023/10/20 06:29:47;;;;;;;;;;;;;;;7.99;87.13;98860.69;4194348;28;20028;-68
2023/10/20 06:31:57;;;;;;;;;;;;;;;7.99;87.20;98852.63;4193643;28;20410;-67
2023/10/20 06:34:03;;;;;;;;;;;;;;;7.99;87.38;98865.25;4195291;28;20030;-66
2023/10/20 06:36:10;;;;;;;;;;;;;;;7.99;87.22;98865.25;4195843;28;20618;-67
2023/10/20 06:38:14;;;;;;;;;;;;;;;7.98;87.20;98868.97;4194984;28;20371;-67
2023/10/20 06:40:16;;;;;;;;;;;;;;;7.97;87.02;98865.47;4193665;28;20008;-67
2023/10/20 06:42:17;;;;;;;;;;;;;;;7.97;87.05;98848.53;4193453;28;20012;-67
2023/10/20 06:44:20;;;;;;;;;;;;;;;7.97;87.11;98852.03;4193658;28;20071;-68
2023/10/20 06:46:22;;;;;;;;;;;;;;;7.99;87.04;98841.06;4194735;28;20039;-67
2023/10/20 06:48:26;;;;;;;;;;;;;;;7.98;86.72;98840.25;4194822;28;20003;-68
2023/10/20 06:50:28;;;;;;;;;;;;;;;7.97;86.69;98840.44;4195221;28;20031;-68
2023/10/20 06:52:30;;;;;;;;;;;;;;;7.96;87.14;98836.09;4194312;28;20039;-68
2023/10/20 06:54:32;;;;;;;;;;;;;;;7.96;87.03;98830.72;4193831;28;20015;-67
2023/10/20 06:56:34;;;;;;;;;;;;;;;7.96;86.98;98839.59;4194864;28;20019;-68
2023/10/20 06:58:36;;;;;;;;;;;;;;;7.98;86.61;98821.44;4195247;28;19939;-67
2023/10/20 07:00:38;;;;;;;;;;;;;;;7.97;86.88;98824.31;4193371;28;20032;-67
2023/10/20 07:02:40;;;;;;;;;;;;;;;7.94;86.79;98823.69;4193346;28;20023;-68
2023/10/20 07:04:44;;;;;;;;;;;;;;;7.93;87.15;98826.56;4194555;28;20030;-68
2023/10/20 07:06:46;;;;;;;;;;;;;;;7.93;87.19;98810.44;4194693;28;20038;-67
2023/10/20 07:08:50;;;;;;;;;;;;;;;7.90;87.40;98806.34;4195164;28;20059;-68
2023/10/20 07:10:52;;;;;;;;;;;;;;;7.90;87.51;98814.41;4193862;28;20053;-68
2023/10/20 07:12:54;;;;;;;;;;;;;;;7.91;87.35;98810.66;4194812;28;20009;-68
2023/10/20 07:14:56;;;;;;;;;;;;;;;7.89;87.46;98810.03;4194340;28;20525;-67
2023/10/20 07:17:01;;;;;;;;;;;;;;;7.88;87.53;98807.56;4194198;28;20007;-66
2023/10/20 07:19:04;;;;;;;;;;;;;;;7.88;87.51;98812.94;4193034;28;19959;-68
2023/10/20 07:21:07;;;;;;;;;;;;;;;7.88;87.36;98800.34;4194543;28;20011;-68
2023/10/20 07:23:09;;;;;;;;;;;;;;;7.89;87.32;98775.09;4195369;28;20364;-67
2023/10/20 07:25:11;;;;;;;;;;;;;;;7.88;87.16;98760.03;4194651;28;20029;-68
2023/10/20 07:27:13;;;;;;;;;;;;;;;7.88;87.17;98756.50;4195311;28;20015;-68
2023/10/20 07:29:17;;;;;;;;;;;;;;;7.87;87.33;98784.44;4194432;28;20044;-68
2023/10/20 07:31:18;;;;;;;;;;;;;;;7.87;87.13;98787.94;4193814;28;20024;-67
2023/10/20 07:33:20;;;;;;;;;;;;;;;7.87;87.37;98779.88;4194841;28;20023;-68
2023/10/20 07:35:22;;;;;;;;;;;;;;;7.85;87.27;98778.41;4195046;28;20752;-67
2023/10/20 07:37:26;;;;;;;;;;;;;;;7.84;87.30;98796.41;4194420;28;20015;-67
2023/10/20 07:39:28;;;;;;;;;;;;;;;7.84;87.67;98790.22;4194659;28;19954;-68
2023/10/20 07:41:29;;;;;;;;;;;;;;;7.84;87.98;98774.91;4192720;28;20039;-68
2023/10/20 07:43:31;;;;;;;;;;;;;;;7.84;87.70;98766.84;4188728;28;20028;-68
2023/10/20 07:45:38;;;;;;;;;;;;;;;7.84;87.43;98771.41;4189963;28;20019;-68
2023/10/20 07:47:39;;;;;;;;;;;;;;;7.83;87.72;98773.25;4190773;28;20359;-67
2023/10/20 07:49:42;;;;;;;;;;;;;;;7.83;87.54;98765.19;4192317;28;20099;-67
2023/10/20 07:51:44;;;;;;;;;;;;;;;7.82;87.53;98751.94;4191058;28;20047;-68
2023/10/20 07:53:47;;;;;;;;;;;;;;;7.82;87.55;98743.88;4193763;28;20016;-70
2023/10/20 07:55:49;;;;;;;;;;;;;;;7.82;87.86;98751.94;4193652;28;20023;-65
2023/10/20 07:57:51;;;;;;;;;;;;;;;7.82;87.52;98760.00;4192439;28;20023;-67
2023/10/20 07:59:53;;;;;;;;;;;;;;;7.80;87.47;98754.84;4192781;28;19932;-66
2023/10/20 08:01:55;;;;;;;;;;;;;;;7.80;87.87;98752.16;4187529;28;20023;-66
2023/10/20 08:03:57;;;;;;;;;;;;;;;7.82;87.79;98743.88;4190943;28;20019;-68
2023/10/20 08:06:02;;;;;;;;;;;;;;;7.85;88.05;98722.81;4192853;28;20028;-69
2023/10/20 08:08:04;;;;;;;;;;;;;;;7.84;88.06;98734.59;4193081;28;20014;-68
2023/10/20 08:10:08;;;;;;;;;;;;;;;7.84;87.75;98728.41;4189740;28;20027;-69
2023/10/20 08:12:10;;;;;;;;;;;;;;;7.84;87.75;98726.53;4192906;28;20376;-69
2023/10/20 08:14:13;;;;;;;;;;;;;;;7.84;87.78;98717.66;4192890;28;21380;-69
2023/10/20 08:16:15;;;;;;;;;;;;;;;7.83;87.77;98698.00;4193476;28;20031;-70
2023/10/20 08:18:17;;;;;;;;;;;;;;;7.84;87.49;98714.97;4193836;28;20409;-70
2023/10/20 08:20:19;;;;;;;;;;;;;;;7.85;87.41;98711.22;4192259;28;20385;-69
2023/10/20 08:22:21;;;;;;;;;;;;;;;7.84;86.96;98715.78;4192780;28;20020;-69
2023/10/20 08:24:24;;;;;;;;;;;;;;;7.83;87.20;98714.13;4193242;28;20034;-69
2023/10/20 08:26:27;;;;;;;;;;;;;;;7.83;87.06;98732.09;4194016;28;20028;-68
2023/10/20 08:28:29;;;;;;;;;;;;;;;7.84;87.00;98739.16;4191456;28;20031;-68
2023/10/20 08:30:31;;;;;;;;;;;;;;;7.82;87.17;98733.97;4192486;28;20023;-69
2023/10/20 08:32:33;;;;;;;;;;;;;;;7.82;86.83;98750.09;4191540;28;20028;-68
2023/10/20 08:34:35;;;;;;;;;;;;;;;7.82;86.55;98747.41;4193797;28;20020;-68
2023/10/20 08:36:37;;;;;;;;;;;;;;;7.81;86.68;98753.00;4192910;28;20434;-68
2023/10/20 08:38:40;;;;;;;;;;;;;;;7.80;86.57;98757.53;4193249;28;20024;-69
2023/10/20 08:40:42;;;;;;;;;;;;;;;7.80;86.87;98757.53;4193196;28;20740;-68
2023/10/20 08:42:45;;;;;;;;;;;;;;;7.82;86.74;98762.69;4192953;28;20345;-69
2023/10/20 08:44:47;;;;;;;;;;;;;;;7.81;86.22;98772.63;4192207;28;20019;-67
2023/10/20 08:46:49;;;;;;;;;;;;;;;7.80;86.43;98768.28;4192821;28;20111;-69
2023/10/20 08:48:50;;;;;;;;;;;;;;;7.81;86.05;98745.75;4191823;28;20011;-68
2023/10/20 08:50:52;;;;;;;;;;;;;;;7.80;86.60;98743.28;4192436;28;19954;-69
2023/10/20 08:52:54;;;;;;;;;;;;;;;7.79;86.56;98745.16;4192496;28;20027;-68
2023/10/20 08:54:56;;;;;;;;;;;;;;;7.78;86.46;98730.03;4192889;28;20011;-67
2023/10/20 08:56:59;;;;;;;;;;;;;;;7.76;86.42;98735.63;4193466;28;20032;-68
2023/10/20 08:59:02;;;;;;;;;;;;;;;7.75;86.94;98742.03;4193498;28;20479;-69
2023/10/20 09:01:05;;;;;;;;;;;;;;;7.74;86.83;98734.19;4190921;28;20366;-68
2023/10/20 09:03:07;;;;;;;;;;;;;;;7.74;86.97;98737.72;4191447;28;20008;-70
2023/10/20 09:05:10;;;;;;;;;;;;;;;7.74;87.05;98742.22;4193368;28;20034;-67
2023/10/20 09:07:12;;;;;;;;;;;;;;;7.74;87.13;98745.78;4193382;28;20008;-69
2023/10/20 09:09:14;;;;;;;;;;;;;;;7.73;87.05;98740.59;4191803;28;20023;-68
2023/10/20 09:11:18;;;;;;;;;;;;;;;7.72;87.06;98738.94;4192829;28;20467;-69
2023/10/20 09:13:20;;;;;;;;;;;;;;;7.72;87.37;98734.38;4192634;28;20015;-68
2023/10/20 09:15:23;;;;;;;;;;;;;;;7.71;87.29;98729.22;4193136;28;20020;-68
2023/10/20 09:17:26;;;;;;;;;;;;;;;7.71;87.25;98721.16;4192954;28;20028;-69
2023/10/20 09:19:28;;;;;;;;;;;;;;;7.72;87.11;98720.13;4192608;28;20018;-68
2023/10/20 09:21:30;;;;;;;;;;;;;;;7.71;86.75;98722.00;4192476;28;19936;-69
2023/10/20 09:23:32;;;;;;;;;;;;;;;7.71;86.97;98713.09;4193122;28;20016;-69
2023/10/20 09:25:34;;;;;;;;;;;;;;;7.70;86.71;98712.28;4192726;28;20019;-70
2023/10/20 09:27:36;;;;;;;;;;;;;;;7.68;86.94;98702.75;4192324;28;20020;-68
2023/10/20 09:29:38;;;;;;;;;;;;;;;7.68;87.33;98700.06;4192320;28;20031;-70
2023/10/20 09:31:41;;;;;;;;;;;;;;;7.70;86.96;98701.53;4191160;28;20023;-70
2023/10/20 09:33:42;;;;;;;;;;;;;;;7.69;86.86;98691.81;4191967;28;20019;-69
2023/10/20 09:35:44;;;;;;;;;;;;;;;7.69;87.30;98694.50;4192412;28;20505;-69
2023/10/20 09:37:46;;;;;;;;;;;;;;;7.68;87.17;98698.22;4192345;28;19935;-70
2023/10/20 09:39:48;;;;;;;;;;;;;;;7.70;86.86;98700.72;4192414;28;20008;-69
2023/10/20 09:41:50;;;;;;;;;;;;;;;7.70;86.95;98698.03;4195208;28;20638;-70
2023/10/20 09:43:53;;;;;;;;;;;;;;;7.69;86.77;98688.31;4194486;28;20450;-68
2023/10/20 09:45:56;;;;;;;;;;;;;;;7.68;86.99;98676.72;4194984;28;20019;-68
2023/10/20 09:48:00;;;;;;;;;;;;;;;7.68;86.92;98666.00;4195256;28;20641;-70
2023/10/20 09:50:05;;;;;;;;;;;;;;;7.69;86.82;98672.19;4187329;28;20004;-67
2023/10/20 09:52:07;;;;;;;;;;;;;;;7.69;86.93;98666.81;4194539;28;20015;-67
2023/10/20 09:54:09;;;;;;;;;;;;;;;7.69;87.17;98664.13;4195338;28;20015;-67
2023/10/20 09:56:12;;;;;;;;;;;;;;;7.68;86.71;98660.63;4194842;28;20030;-69
2023/10/20 09:58:24;;;;;;;;;;;;;;;7.68;87.10;98644.50;4195934;28;20023;-68
2023/10/20 10:00:30;;;;;;;;;;;;;;;7.68;87.17;98643.66;4194204;28;20007;-69
2023/10/20 10:02:32;;;;;;;;;;;;;;;7.69;87.05;98635.38;4191938;28;20430;-68
2023/10/20 10:04:36;;;;;;;;;;;;;;;7.71;86.70;98659.34;4196352;28;20427;-68
2023/10/20 10:06:39;;;;;;;;;;;;;;;7.70;86.66;98649.66;4194855;28;20011;-67
2023/10/20 10:08:41;;;;;;;;;;;;;;;7.71;86.62;98648.59;4196194;28;20024;-69
2023/10/20 10:10:42;;;;;;;;;;;;;;;7.69;86.61;98648.81;4194531;28;20027;-71
2023/10/20 10:12:57;;;;;;;;;;;;;;;7.69;86.29;98651.50;4194375;28;20027;-68
2023/10/20 10:15:06;;;;;;;;;;;;;;;7.71;86.33;98670.09;4196084;28;20015;-65
2023/10/20 10:17:08;;;;;;;;;;;;;;;7.70;86.34;98663.09;4195174;28;20481;-67
2023/10/20 10:19:10;;;;;;;;;;;;;;;7.69;86.44;98656.88;4195972;28;20377;-68
2023/10/20 10:21:21;;;;;;;;;;;;;;;7.69;86.56;98650.69;4194771;28;20369;-69
2023/10/20 10:23:27;;;;;;;;;;;;;;;7.67;86.40;98658.94;4196914;28;19929;-68
2023/10/20 10:25:33;;;;;;;;;;;;;;;7.67;86.32;98653.56;4195436;28;20455;-68
2023/10/20 10:27:36;;;;;;;;;;;;;;;7.69;86.42;98648.00;4194226;28;20015;-68
2023/10/20 10:29:48;;;;;;;;;;;;;;;7.68;86.29;98663.31;4195105;28;20055;-65
2023/10/20 10:31:49;;;;;;;;;;;;;;;7.66;85.93;98653.78;4193182;28;20018;-67
2023/10/20 10:34:00;;;;;;;;;;;;;;;7.67;86.25;98658.13;4194407;28;20027;-68
2023/10/20 10:36:02;;;;;;;;;;;;;;;7.66;86.27;98659.16;4194946;28;20023;-68
2023/10/20 10:38:09;;;;;;;;;;;;;;;7.65;86.01;98655.66;4194282;28;20059;-67
2023/10/20 10:40:11;;;;;;;;;;;;;;;7.64;86.09;98658.56;4193079;28;20031;-68
2023/10/20 10:42:13;;;;;;;;;;;;;;;7.63;86.54;98651.53;4193832;28;20027;-67
2023/10/20 10:44:15;;;;;;;;;;;;;;;7.64;86.50;98650.50;4195296;28;20379;-66
2023/10/20 10:46:16;;;;;;;;;;;;;;;7.64;86.25;98658.56;4196049;28;20429;-68
2023/10/20 10:48:24;;;;;;;;;;;;;;;7.63;86.31;98643.47;4194814;28;20028;-68
2023/10/20 10:50:27;;;;;;;;;;;;;;;7.62;86.23;98642.66;4183438;28;20043;-68
2023/10/20 10:52:29;;;;;;;;;;;;;;;7.62;86.75;98641.78;4192805;28;20023;-66
2023/10/20 10:54:34;;;;;;;;;;;;;;;7.63;86.44;98646.97;4194423;28;20452;-68
2023/10/20 10:56:37;;;;;;;;;;;;;;;7.63;86.28;98643.47;4195176;28;20015;-67
2023/10/20 10:58:39;;;;;;;;;;;;;;;7.64;86.00;98639.75;4204163;28;20429;-67
2023/10/20 11:00:43;;;;;;;;;;;;;;;7.63;86.15;98649.66;4195180;28;19963;-67
2023/10/20 11:02:46;;;;;;;;;;;;;;;7.62;86.26;98645.31;4194984;28;20027;-67
2023/10/20 11:04:51;;;;;;;;;;;;;;;7.61;86.15;98643.66;4195442;28;19928;-66
2023/10/20 11:06:54;;;;;;;;;;;;;;;7.61;86.40;98651.72;4195997;28;20019;-67
2023/10/20 11:08:56;;;;;;;;;;;;;;;7.61;86.32;98656.28;4170542;28;19940;-67
2023/10/20 11:11:00;;;;;;;;;;;;;;;7.60;86.14;98657.31;4201737;28;20003;-67
2023/10/20 11:13:05;;;;;;;;;;;;;;;7.60;86.33;98660.00;4193460;28;20026;-67
2023/10/20 11:15:07;;;;;;;;;;;;;;;7.60;85.89;98660.81;4195144;28;20022;-67